createdAt,value
2022-11-17T00:00:56.819Z,0
2022-11-17T00:01:59.747Z,0
2022-11-17T00:03:03.135Z,0
2022-11-17T00:04:06.861Z,0
2022-11-17T00:05:10.584Z,0
2022-11-17T00:06:13.268Z,0
2022-11-17T00:07:16.593Z,0
2022-11-17T00:08:19.826Z,0
2022-11-17T00:09:23.016Z,0
2022-11-17T00:10:25.068Z,0
2022-11-17T00:11:29.205Z,0
2022-11-17T00:12:33.104Z,0
2022-11-17T00:13:36.951Z,0
2022-11-17T00:14:40.223Z,0
2022-11-17T00:15:42.183Z,0
2022-11-17T00:16:45.540Z,0
2022-11-17T00:17:48.417Z,0
2022-11-17T00:18:51.519Z,0
2022-11-17T00:19:54.724Z,0
2022-11-17T00:20:57.628Z,0
2022-11-17T00:22:00.511Z,0
2022-11-17T00:23:03.034Z,0
2022-11-17T00:24:06.488Z,0
2022-11-17T00:25:09.636Z,0
2022-11-17T00:26:12.428Z,0
2022-11-17T00:27:16.936Z,0
2022-11-17T00:28:20.042Z,0
2022-11-17T00:29:23.675Z,0
2022-11-17T00:30:26.826Z,0
2022-11-17T00:31:29.355Z,0
2022-11-17T00:32:32.164Z,0
2022-11-17T00:33:35.794Z,0
2022-11-17T00:34:40.205Z,0
2022-11-17T00:35:43.732Z,0
2022-11-17T00:36:47.364Z,0
2022-11-17T00:37:50.097Z,0
2022-11-17T00:38:53.262Z,0
2022-11-17T00:40:00.476Z,0
2022-11-17T00:41:03.944Z,0
2022-11-17T00:42:06.939Z,0
2022-11-17T00:43:11.218Z,0
2022-11-17T00:44:14.649Z,0
2022-11-17T00:45:18.036Z,0
2022-11-17T00:46:21.108Z,0
2022-11-17T00:47:23.822Z,0
2022-11-17T00:48:26.613Z,0
2022-11-17T00:49:29.413Z,0
2022-11-17T00:50:32.282Z,0
2022-11-17T00:51:34.807Z,0
2022-11-17T00:52:37.807Z,0
2022-11-17T00:53:40.686Z,0
2022-11-17T00:54:43.408Z,0
2022-11-17T00:55:46.510Z,0
2022-11-17T00:56:49.553Z,0
2022-11-17T00:57:52.925Z,0
2022-11-17T00:58:57.490Z,0
2022-11-17T01:00:01.134Z,0
2022-11-17T01:01:04.522Z,0
2022-11-17T01:02:08.650Z,0
2022-11-17T01:03:11.727Z,0
2022-11-17T01:04:14.515Z,0
2022-11-17T01:05:17.042Z,0
2022-11-17T01:06:20.147Z,0
2022-11-17T01:07:22.763Z,0
2022-11-17T01:08:26.282Z,0
2022-11-17T01:09:29.358Z,0
2022-11-17T01:10:32.146Z,0
2022-11-17T01:11:35.230Z,0
2022-11-17T01:12:37.755Z,0
2022-11-17T01:13:40.857Z,0
2022-11-17T01:14:44.914Z,0
2022-11-17T01:15:47.362Z,0
2022-11-17T01:16:50.961Z,0
2022-11-17T01:17:53.768Z,0
2022-11-17T01:18:56.783Z,0
2022-11-17T01:19:59.655Z,0
2022-11-17T01:21:03.084Z,0
2022-11-17T01:22:06.135Z,0
2022-11-17T01:23:08.591Z,0
2022-11-17T01:24:11.195Z,0
2022-11-17T01:25:13.717Z,0
2022-11-17T01:26:16.512Z,0
2022-11-17T01:27:19.676Z,0
2022-11-17T01:28:22.471Z,0
2022-11-17T01:29:25.266Z,0
2022-11-17T01:30:29.847Z,0
2022-11-17T01:31:32.288Z,0
2022-11-17T01:32:35.573Z,0
2022-11-17T01:33:38.650Z,0
2022-11-17T01:34:41.817Z,0
2022-11-17T01:35:44.813Z,0
2022-11-17T01:36:47.882Z,0
2022-11-17T01:37:50.667Z,0
2022-11-17T01:38:53.527Z,0
2022-11-17T01:39:56.591Z,0
2022-11-17T01:41:00.012Z,0
2022-11-17T01:42:03.826Z,0
2022-11-17T01:43:06.428Z,0
2022-11-17T01:44:09.530Z,0
2022-11-17T01:45:12.635Z,0
2022-11-17T01:46:17.203Z,0
2022-11-17T01:47:20.058Z,0
2022-11-17T01:48:22.992Z,0
2022-11-17T01:49:25.792Z,0
2022-11-17T01:50:28.597Z,0
2022-11-17T01:51:31.394Z,0
2022-11-17T01:52:34.197Z,0
2022-11-17T01:53:37.629Z,0
2022-11-17T01:54:40.693Z,0
2022-11-17T01:55:43.563Z,0
2022-11-17T01:56:46.685Z,0
2022-11-17T01:57:49.193Z,0
2022-11-17T01:58:52.184Z,0
2022-11-17T01:59:54.708Z,0
2022-11-17T02:00:58.153Z,0
2022-11-17T02:02:02.382Z,0
2022-11-17T02:03:05.862Z,0
2022-11-17T02:04:09.157Z,0
2022-11-17T02:05:11.897Z,0
2022-11-17T02:06:15.257Z,0
2022-11-17T02:07:18.270Z,0
2022-11-17T02:08:21.848Z,0
2022-11-17T02:09:25.130Z,0
2022-11-17T02:10:27.941Z,0
2022-11-17T02:11:31.047Z,0
2022-11-17T02:12:33.769Z,0
2022-11-17T02:13:37.717Z,0
2022-11-17T02:14:40.525Z,0
2022-11-17T02:15:43.602Z,0
2022-11-17T02:16:46.119Z,0
2022-11-17T02:17:50.869Z,0
2022-11-17T02:18:54.291Z,0
2022-11-17T02:19:57.657Z,0
2022-11-17T02:21:00.260Z,0
2022-11-17T02:22:03.070Z,0
2022-11-17T02:23:05.953Z,0
2022-11-17T02:24:09.406Z,0
2022-11-17T02:25:12.289Z,0
2022-11-17T02:26:15.740Z,0
2022-11-17T02:27:18.456Z,0
2022-11-17T02:28:20.704Z,0
2022-11-17T02:29:23.507Z,0
2022-11-17T02:30:26.501Z,0
2022-11-17T02:31:28.745Z,0
2022-11-17T02:32:31.578Z,0
2022-11-17T02:33:35.589Z,0
2022-11-17T02:34:40.575Z,0
2022-11-17T02:35:44.713Z,0
2022-11-17T02:36:47.505Z,0
2022-11-17T02:37:50.370Z,0
2022-11-17T02:38:53.084Z,0
2022-11-17T02:39:55.523Z,0
2022-11-17T02:40:58.321Z,0
2022-11-17T02:42:00.819Z,0
2022-11-17T02:43:03.424Z,0
2022-11-17T02:44:06.179Z,0
2022-11-17T02:45:09.043Z,0
2022-11-17T02:46:12.316Z,0
2022-11-17T02:47:14.546Z,0
2022-11-17T02:48:17.250Z,0
2022-11-17T02:49:21.310Z,0
2022-11-17T02:50:28.178Z,0
2022-11-17T02:51:32.250Z,0
2022-11-17T02:52:35.323Z,0
2022-11-17T02:53:38.728Z,0
2022-11-17T02:54:42.570Z,0
2022-11-17T02:55:45.716Z,0
2022-11-17T02:56:48.035Z,0
2022-11-17T02:57:50.909Z,0
2022-11-17T02:58:53.723Z,0
2022-11-17T02:59:57.274Z,0
2022-11-17T03:01:00.374Z,0
2022-11-17T03:02:03.852Z,0
2022-11-17T03:03:06.988Z,0
2022-11-17T03:04:10.060Z,0
2022-11-17T03:05:14.645Z,0
2022-11-17T03:06:18.097Z,0
2022-11-17T03:07:20.798Z,0
2022-11-17T03:08:26.507Z,0
2022-11-17T03:09:35.906Z,0
2022-11-17T03:10:38.984Z,0
2022-11-17T03:11:41.802Z,0
2022-11-17T03:12:44.954Z,0
2022-11-17T03:13:47.534Z,0
2022-11-17T03:14:50.621Z,0
2022-11-17T03:15:52.786Z,0
2022-11-17T03:16:55.304Z,0
2022-11-17T03:17:58.017Z,0
2022-11-17T03:19:00.819Z,0
2022-11-17T03:20:03.769Z,0
2022-11-17T03:21:08.285Z,0
2022-11-17T03:22:11.515Z,0
2022-11-17T03:23:14.543Z,0
2022-11-17T03:24:17.864Z,0
2022-11-17T03:25:20.467Z,0
2022-11-17T03:26:23.275Z,0
2022-11-17T03:27:26.168Z,0
2022-11-17T03:28:29.259Z,0
2022-11-17T03:29:32.415Z,0
2022-11-17T03:30:37.537Z,0
2022-11-17T03:31:40.534Z,0
2022-11-17T03:32:43.725Z,0
2022-11-17T03:33:46.596Z,0
2022-11-17T03:34:49.306Z,0
2022-11-17T03:35:51.833Z,0
2022-11-17T03:36:56.317Z,0
2022-11-17T03:37:59.114Z,0
2022-11-17T03:39:02.246Z,0
2022-11-17T03:40:05.038Z,0
2022-11-17T03:41:08.462Z,0
2022-11-17T03:42:11.816Z,0
2022-11-17T03:43:14.982Z,0
2022-11-17T03:44:17.542Z,0
2022-11-17T03:45:20.340Z,0
2022-11-17T03:46:23.408Z,0
2022-11-17T03:47:25.647Z,0
2022-11-17T03:48:28.521Z,0
2022-11-17T03:49:31.864Z,0
2022-11-17T03:50:34.572Z,0
2022-11-17T03:51:37.793Z,0
2022-11-17T03:52:42.350Z,0
2022-11-17T03:53:45.051Z,0
2022-11-17T03:54:47.980Z,0
2022-11-17T03:55:50.208Z,0
2022-11-17T03:56:53.556Z,0
2022-11-17T03:57:56.910Z,0
2022-11-17T03:59:00.008Z,0
2022-11-17T04:00:03.476Z,0
2022-11-17T04:01:06.371Z,0
2022-11-17T04:02:09.787Z,0
2022-11-17T04:03:12.904Z,0
2022-11-17T04:04:16.400Z,0
2022-11-17T04:05:18.964Z,0
2022-11-17T04:06:21.459Z,0
2022-11-17T04:07:24.598Z,0
2022-11-17T04:08:29.620Z,0
2022-11-17T04:09:32.443Z,0
2022-11-17T04:10:36.054Z,0
2022-11-17T04:11:39.110Z,0
2022-11-17T04:12:41.533Z,0
2022-11-17T04:13:44.515Z,0
2022-11-17T04:14:47.589Z,0
2022-11-17T04:15:51.484Z,0
2022-11-17T04:16:54.068Z,0
2022-11-17T04:17:56.785Z,0
2022-11-17T04:18:59.657Z,0
2022-11-17T04:20:02.817Z,0
2022-11-17T04:21:05.330Z,0
2022-11-17T04:22:07.921Z,0
2022-11-17T04:23:11.311Z,0
2022-11-17T04:24:15.491Z,0
2022-11-17T04:25:18.919Z,0
2022-11-17T04:26:21.860Z,0
2022-11-17T04:27:24.466Z,0
2022-11-17T04:28:27.747Z,0
2022-11-17T04:29:30.846Z,0
2022-11-17T04:30:33.556Z,0
2022-11-17T04:31:37.006Z,0
2022-11-17T04:32:40.171Z,0
2022-11-17T04:33:43.053Z,0
2022-11-17T04:34:45.495Z,0
2022-11-17T04:35:47.466Z,0
2022-11-17T04:36:50.613Z,0
2022-11-17T04:37:53.792Z,0
2022-11-17T04:38:56.639Z,0
2022-11-17T04:40:01.133Z,0
2022-11-17T04:41:03.939Z,0
2022-11-17T04:42:07.422Z,0
2022-11-17T04:43:10.567Z,0
2022-11-17T04:44:13.296Z,0
2022-11-17T04:45:16.292Z,0
2022-11-17T04:46:18.837Z,0
2022-11-17T04:47:21.920Z,0
2022-11-17T04:48:25.068Z,0
2022-11-17T04:49:27.314Z,0
2022-11-17T04:50:30.673Z,0
2022-11-17T04:51:33.264Z,0
2022-11-17T04:52:35.966Z,0
2022-11-17T04:53:38.753Z,0
2022-11-17T04:54:42.411Z,0
2022-11-17T04:55:46.395Z,0
2022-11-17T04:56:49.264Z,0
2022-11-17T04:57:52.196Z,0
2022-11-17T04:58:55.141Z,0
2022-11-17T04:59:57.582Z,0
2022-11-17T05:01:00.587Z,0
2022-11-17T05:02:06.058Z,0
2022-11-17T05:03:09.659Z,0
2022-11-17T05:04:12.525Z,0
2022-11-17T05:05:15.638Z,0
2022-11-17T05:06:18.376Z,0
2022-11-17T05:07:21.778Z,0
2022-11-17T05:08:24.618Z,0
2022-11-17T05:09:27.612Z,0
2022-11-17T05:10:30.132Z,0
2022-11-17T05:11:34.154Z,0
2022-11-17T05:12:37.223Z,0
2022-11-17T05:13:40.710Z,0
2022-11-17T05:14:43.773Z,0
2022-11-17T05:15:46.589Z,0
2022-11-17T05:16:49.462Z,0
2022-11-17T05:17:52.555Z,0
2022-11-17T05:18:55.363Z,0
2022-11-17T05:19:58.547Z,0
2022-11-17T05:21:01.455Z,0
2022-11-17T05:22:04.261Z,0
2022-11-17T05:23:07.173Z,0
2022-11-17T05:24:10.404Z,0
2022-11-17T05:25:13.516Z,0
2022-11-17T05:26:16.876Z,0
2022-11-17T05:27:21.260Z,0
2022-11-17T05:28:24.612Z,0
2022-11-17T05:29:28.493Z,0
2022-11-17T05:30:31.212Z,0
2022-11-17T05:31:34.285Z,0
2022-11-17T05:32:38.105Z,0
2022-11-17T05:33:41.152Z,0
2022-11-17T05:34:46.593Z,0
2022-11-17T05:35:49.125Z,0
2022-11-17T05:36:51.839Z,0
2022-11-17T05:37:54.837Z,0
2022-11-17T05:38:57.278Z,0
2022-11-17T05:40:00.358Z,0
2022-11-17T05:41:03.233Z,0
2022-11-17T05:42:06.948Z,0
2022-11-17T05:43:11.608Z,0
2022-11-17T05:44:14.783Z,0
2022-11-17T05:45:17.923Z,0
2022-11-17T05:46:21.103Z,0
2022-11-17T05:47:23.541Z,0
2022-11-17T05:48:26.256Z,0
2022-11-17T05:49:28.761Z,0
2022-11-17T05:50:31.996Z,0
2022-11-17T05:51:35.158Z,0
2022-11-17T05:52:38.236Z,0
2022-11-17T05:53:41.123Z,0
2022-11-17T05:54:43.642Z,0
2022-11-17T05:55:46.735Z,0
2022-11-17T05:56:49.517Z,0
2022-11-17T05:57:52.860Z,0
2022-11-17T05:58:56.962Z,0
2022-11-17T05:59:59.763Z,0
2022-11-17T06:01:02.698Z,0
2022-11-17T06:02:05.575Z,0
2022-11-17T06:03:08.092Z,0
2022-11-17T06:04:10.646Z,0
2022-11-17T06:05:18.814Z,0
2022-11-17T06:06:23.122Z,0
2022-11-17T06:07:26.521Z,4
2022-11-17T06:08:29.743Z,4
2022-11-17T06:09:32.608Z,0
2022-11-17T06:10:35.954Z,0
2022-11-17T06:11:38.847Z,4
2022-11-17T06:12:42.121Z,4
2022-11-17T06:13:45.086Z,4
2022-11-17T06:14:49.073Z,4
2022-11-17T06:15:52.502Z,8
2022-11-17T06:16:56.196Z,8
2022-11-17T06:17:58.991Z,8
2022-11-17T06:19:01.674Z,12
2022-11-17T06:20:04.825Z,12
2022-11-17T06:21:07.268Z,16
2022-11-17T06:22:12.907Z,16
2022-11-17T06:23:17.131Z,20
2022-11-17T06:24:19.454Z,24
2022-11-17T06:25:22.445Z,28
2022-11-17T06:26:25.524Z,32
2022-11-17T06:27:28.601Z,40
2022-11-17T06:28:32.091Z,52
2022-11-17T06:29:38.234Z,52
2022-11-17T06:30:48.844Z,64
2022-11-17T06:31:52.174Z,72
2022-11-17T06:32:54.982Z,72
2022-11-17T06:33:57.520Z,84
2022-11-17T06:35:00.676Z,96
2022-11-17T06:36:03.557Z,108
2022-11-17T06:37:06.630Z,120
2022-11-17T06:38:09.514Z,116
2022-11-17T06:39:12.031Z,124
2022-11-17T06:40:15.189Z,140
2022-11-17T06:41:18.333Z,144
2022-11-17T06:42:20.926Z,164
2022-11-17T06:43:23.644Z,172
2022-11-17T06:44:26.438Z,196
2022-11-17T06:45:29.423Z,196
2022-11-17T06:46:33.477Z,204
2022-11-17T06:47:36.750Z,236
2022-11-17T06:48:39.973Z,248
2022-11-17T06:49:42.414Z,284
2022-11-17T06:50:45.760Z,304
2022-11-17T06:51:48.673Z,308
2022-11-17T06:52:51.465Z,304
2022-11-17T06:53:54.863Z,320
2022-11-17T06:54:57.615Z,344
2022-11-17T06:56:00.451Z,368
2022-11-17T06:57:02.756Z,388
2022-11-17T06:58:06.189Z,420
2022-11-17T06:59:09.879Z,432
2022-11-17T07:00:12.723Z,456
2022-11-17T07:01:15.746Z,472
2022-11-17T07:02:20.269Z,508
2022-11-17T07:03:22.787Z,556
2022-11-17T07:04:25.890Z,556
2022-11-17T07:05:28.750Z,616
2022-11-17T07:06:32.717Z,692
2022-11-17T07:07:35.549Z,716
2022-11-17T07:08:38.854Z,776
2022-11-17T07:09:41.685Z,860
2022-11-17T07:10:49.091Z,852
2022-11-17T07:11:52.310Z,832
2022-11-17T07:12:55.365Z,860
2022-11-17T07:13:58.486Z,900
2022-11-17T07:15:01.967Z,828
2022-11-17T07:16:04.795Z,816
2022-11-17T07:17:07.846Z,800
2022-11-17T07:18:12.433Z,848
2022-11-17T07:19:14.842Z,892
2022-11-17T07:20:17.677Z,872
2022-11-17T07:21:20.640Z,808
2022-11-17T07:22:23.158Z,816
2022-11-17T07:23:26.325Z,792
2022-11-17T07:24:29.471Z,932
2022-11-17T07:25:32.241Z,900
2022-11-17T07:26:35.302Z,968
2022-11-17T07:27:38.642Z,980
2022-11-17T07:28:41.687Z,1044
2022-11-17T07:29:44.736Z,1056
2022-11-17T07:30:48.791Z,1052
2022-11-17T07:31:51.488Z,1044
2022-11-17T07:32:54.909Z,1104
2022-11-17T07:33:59.246Z,1100
2022-11-17T07:35:02.383Z,1172
2022-11-17T07:36:05.830Z,1288
2022-11-17T07:37:08.799Z,1508
2022-11-17T07:38:11.421Z,1544
2022-11-17T07:39:18.521Z,1648
2022-11-17T07:40:24.498Z,1764
2022-11-17T07:41:27.600Z,1788
2022-11-17T07:42:30.643Z,1712
2022-11-17T07:43:33.425Z,1736
2022-11-17T07:44:36.442Z,1692
2022-11-17T07:45:39.500Z,1580
2022-11-17T07:46:43.482Z,1580
2022-11-17T07:47:46.345Z,1568
2022-11-17T07:48:49.758Z,1840
2022-11-17T07:49:53.974Z,1732
2022-11-17T07:50:57.390Z,1776
2022-11-17T07:52:01.190Z,1680
2022-11-17T07:53:03.975Z,1616
2022-11-17T07:54:07.184Z,1740
2022-11-17T07:55:09.883Z,1624
2022-11-17T07:56:13.324Z,1568
2022-11-17T07:57:16.378Z,1544
2022-11-17T07:58:19.371Z,1452
2022-11-17T07:59:22.713Z,1412
2022-11-17T08:00:25.549Z,1432
2022-11-17T08:01:29.206Z,1440
2022-11-17T08:02:33.155Z,1436
2022-11-17T08:03:35.750Z,1352
2022-11-17T08:04:39.017Z,1476
2022-11-17T08:05:43.929Z,1532
2022-11-17T08:06:47.351Z,1688
2022-11-17T08:07:50.503Z,1680
2022-11-17T08:08:53.919Z,1676
2022-11-17T08:09:57.048Z,1652
2022-11-17T08:11:00.536Z,1572
2022-11-17T08:12:03.519Z,1732
2022-11-17T08:13:06.585Z,2284
2022-11-17T08:14:09.761Z,2352
2022-11-17T08:15:13.476Z,2096
2022-11-17T08:16:16.879Z,2524
2022-11-17T08:17:19.918Z,2308
2022-11-17T08:18:23.008Z,2124
2022-11-17T08:19:26.351Z,2408
2022-11-17T08:20:30.110Z,2332
2022-11-17T08:21:34.327Z,2492
2022-11-17T08:22:37.300Z,2268
2022-11-17T08:23:40.422Z,2360
2022-11-17T08:24:43.734Z,2180
2022-11-17T08:25:45.877Z,2144
2022-11-17T08:26:49.313Z,2128
2022-11-17T08:27:52.735Z,2256
2022-11-17T08:28:58.553Z,2148
2022-11-17T08:30:02.025Z,2480
2022-11-17T08:31:05.431Z,2588
2022-11-17T08:32:08.931Z,2632
2022-11-17T08:33:11.171Z,2752
2022-11-17T08:34:14.509Z,2936
2022-11-17T08:35:17.031Z,2656
2022-11-17T08:36:20.386Z,2720
2022-11-17T08:37:24.586Z,2776
2022-11-17T08:38:28.008Z,2804
2022-11-17T08:39:31.593Z,2708
2022-11-17T08:40:34.743Z,2724
2022-11-17T08:41:38.148Z,2744
2022-11-17T08:42:41.825Z,2908
2022-11-17T08:43:44.883Z,2808
2022-11-17T08:44:47.731Z,2884
2022-11-17T08:45:50.714Z,2972
2022-11-17T08:46:54.334Z,3096
2022-11-17T08:47:57.479Z,3080
2022-11-17T08:48:59.974Z,3484
2022-11-17T08:50:03.130Z,4116
2022-11-17T08:51:05.927Z,4660
2022-11-17T08:52:09.103Z,5776
2022-11-17T08:53:13.705Z,5928
2022-11-17T08:54:16.672Z,6880
2022-11-17T08:55:20.000Z,5568
2022-11-17T08:56:23.720Z,4964
2022-11-17T08:57:26.960Z,5732
2022-11-17T08:58:30.254Z,5724
2022-11-17T08:59:33.714Z,6668
2022-11-17T09:00:36.766Z,6040
2022-11-17T09:01:40.297Z,4584
2022-11-17T09:02:43.517Z,4176
2022-11-17T09:03:46.769Z,3588
2022-11-17T09:04:49.270Z,3008
2022-11-17T09:05:52.588Z,2704
2022-11-17T09:06:55.383Z,2976
2022-11-17T09:08:10.629Z,2488
2022-11-17T09:09:51.480Z,2928
2022-11-17T09:10:55.016Z,3048
2022-11-17T09:11:57.995Z,2852
2022-11-17T09:13:01.394Z,2960
2022-11-17T09:14:04.460Z,2996
2022-11-17T09:15:07.257Z,2924
2022-11-17T09:16:10.866Z,3224
2022-11-17T09:17:13.716Z,2948
2022-11-17T09:18:16.429Z,3012
2022-11-17T09:19:19.853Z,3096
2022-11-17T09:20:22.697Z,3120
2022-11-17T09:21:25.749Z,2828
2022-11-17T09:22:28.923Z,3124
2022-11-17T09:23:31.885Z,3440
2022-11-17T09:24:36.801Z,3236
2022-11-17T09:25:40.970Z,2928
2022-11-17T09:26:44.472Z,2756
2022-11-17T09:27:47.532Z,2796
2022-11-17T09:28:51.252Z,2908
2022-11-17T09:29:54.751Z,2664
2022-11-17T09:30:59.187Z,2572
2022-11-17T09:32:04.982Z,2464
2022-11-17T09:33:07.483Z,2128
2022-11-17T09:34:10.704Z,1980
2022-11-17T09:35:13.923Z,1940
2022-11-17T09:36:16.343Z,1736
2022-11-17T09:37:19.804Z,1712
2022-11-17T09:38:22.955Z,1592
2022-11-17T09:39:26.608Z,1432
2022-11-17T09:40:36.447Z,1588
2022-11-17T09:41:42.317Z,1756
2022-11-17T09:42:45.583Z,1872
2022-11-17T09:43:48.633Z,1908
2022-11-17T09:44:51.905Z,2044
2022-11-17T09:45:54.944Z,2004
2022-11-17T09:46:58.104Z,2172
2022-11-17T09:48:18.859Z,2180
2022-11-17T09:49:45.100Z,2352
2022-11-17T09:50:48.158Z,2124
2022-11-17T09:51:51.600Z,2120
2022-11-17T09:52:54.931Z,1940
2022-11-17T09:53:58.185Z,1876
2022-11-17T09:55:00.899Z,1836
2022-11-17T09:56:04.174Z,1828
2022-11-17T09:57:08.479Z,2028
2022-11-17T09:58:11.750Z,1848
2022-11-17T09:59:14.893Z,1844
2022-11-17T10:00:18.149Z,1992
2022-11-17T10:01:21.902Z,1816
2022-11-17T10:02:25.106Z,1600
2022-11-17T10:03:27.968Z,1680
2022-11-17T10:04:32.568Z,1840
2022-11-17T10:05:35.446Z,1916
2022-11-17T10:06:39.130Z,1928
2022-11-17T10:07:41.910Z,1924
2022-11-17T10:08:45.041Z,1868
2022-11-17T10:09:48.215Z,1928
2022-11-17T10:10:51.570Z,2160
2022-11-17T10:11:54.531Z,2160
2022-11-17T10:12:58.690Z,2300
2022-11-17T10:14:02.173Z,2340
2022-11-17T10:15:06.161Z,2284
2022-11-17T10:16:08.399Z,2092
2022-11-17T10:17:11.475Z,2028
2022-11-17T10:18:14.806Z,1940
2022-11-17T10:19:17.695Z,1848
2022-11-17T10:20:20.981Z,1720
2022-11-17T10:21:23.844Z,1712
2022-11-17T10:22:27.452Z,1596
2022-11-17T10:23:30.580Z,1604
2022-11-17T10:24:34.718Z,1628
2022-11-17T10:25:37.963Z,1532
2022-11-17T10:26:41.970Z,1432
2022-11-17T10:27:44.964Z,1496
2022-11-17T10:28:49.164Z,1448
2022-11-17T10:29:52.182Z,1556
2022-11-17T10:30:55.323Z,1612
2022-11-17T10:31:58.466Z,1728
2022-11-17T10:33:01.430Z,1740
2022-11-17T10:34:05.127Z,1672
2022-11-17T10:35:08.063Z,1660
2022-11-17T10:36:11.501Z,1912
2022-11-17T10:37:15.226Z,1792
2022-11-17T10:38:18.923Z,1648
2022-11-17T10:39:22.478Z,1724
2022-11-17T10:40:26.223Z,1424
2022-11-17T10:41:30.292Z,1404
2022-11-17T10:42:33.065Z,1388
2022-11-17T10:43:36.225Z,1400
2022-11-17T10:44:41.539Z,1448
2022-11-17T10:45:44.792Z,1396
2022-11-17T10:46:48.080Z,1332
2022-11-17T10:48:01.596Z,1464
2022-11-17T10:49:04.650Z,1384
2022-11-17T10:50:07.792Z,1436
2022-11-17T10:51:10.008Z,1484
2022-11-17T10:52:12.516Z,1532
2022-11-17T10:53:15.372Z,1324
2022-11-17T10:54:18.071Z,1252
2022-11-17T10:55:21.421Z,1312
2022-11-17T10:56:24.814Z,1428
2022-11-17T10:57:27.989Z,1456
2022-11-17T10:58:30.477Z,1476
2022-11-17T10:59:34.427Z,1372
2022-11-17T11:00:38.526Z,1228
2022-11-17T11:01:42.185Z,1128
2022-11-17T11:02:45.795Z,1200
2022-11-17T11:03:48.855Z,1212
2022-11-17T11:04:51.596Z,1244
2022-11-17T11:05:55.268Z,1344
2022-11-17T11:06:57.786Z,1276
2022-11-17T11:08:01.676Z,1376
2022-11-17T11:09:04.367Z,1448
2022-11-17T11:10:07.797Z,1404
2022-11-17T11:11:10.764Z,1320
2022-11-17T11:12:13.263Z,1336
2022-11-17T11:13:17.257Z,1348
2022-11-17T11:14:20.868Z,1392
2022-11-17T11:15:23.994Z,1384
2022-11-17T11:16:28.127Z,1380
2022-11-17T11:17:30.951Z,1476
2022-11-17T11:18:33.654Z,1440
2022-11-17T11:19:36.637Z,1396
2022-11-17T11:20:39.341Z,1356
2022-11-17T11:21:42.320Z,1292
2022-11-17T11:22:45.591Z,1340
2022-11-17T11:23:48.080Z,1416
2022-11-17T11:24:51.414Z,1396
2022-11-17T11:25:54.572Z,1324
2022-11-17T11:26:57.933Z,1284
2022-11-17T11:28:01.315Z,1300
2022-11-17T11:29:04.525Z,1288
2022-11-17T11:30:07.229Z,1336
2022-11-17T11:31:10.279Z,1280
2022-11-17T11:32:14.502Z,1340
2022-11-17T11:33:17.801Z,1384
2022-11-17T11:34:20.938Z,1228
2022-11-17T11:35:24.280Z,1308
2022-11-17T11:36:27.101Z,1272
2022-11-17T11:37:30.224Z,1412
2022-11-17T11:38:33.632Z,1304
2022-11-17T11:39:37.270Z,1340
2022-11-17T11:40:40.337Z,1392
2022-11-17T11:41:43.386Z,1436
2022-11-17T11:42:46.246Z,1392
2022-11-17T11:43:48.681Z,1512
2022-11-17T11:44:52.038Z,1400
2022-11-17T11:45:54.916Z,1372
2022-11-17T11:46:58.660Z,1288
2022-11-17T11:48:02.499Z,1244
2022-11-17T11:49:05.473Z,1272
2022-11-17T11:50:08.567Z,1208
2022-11-17T11:51:12.173Z,1256
2022-11-17T11:52:15.490Z,1324
2022-11-17T11:53:18.267Z,1244
2022-11-17T11:54:21.708Z,1324
2022-11-17T11:55:25.067Z,1228
2022-11-17T11:56:28.111Z,1268
2022-11-17T11:57:31.169Z,1280
2022-11-17T11:58:34.805Z,1228
2022-11-17T11:59:37.963Z,1232
2022-11-17T12:00:40.655Z,1184
2022-11-17T12:01:44.089Z,1236
2022-11-17T12:02:47.189Z,1200
2022-11-17T12:03:51.881Z,1276
2022-11-17T12:04:55.553Z,1220
2022-11-17T12:05:58.607Z,1288
2022-11-17T12:07:01.529Z,1352
2022-11-17T12:08:10.313Z,1284
2022-11-17T12:09:13.495Z,1268
2022-11-17T12:10:16.946Z,1344
2022-11-17T12:11:19.437Z,1400
2022-11-17T12:12:21.655Z,1340
2022-11-17T12:13:24.636Z,1332
2022-11-17T12:14:28.049Z,1428
2022-11-17T12:15:31.372Z,1464
2022-11-17T12:16:34.823Z,1392
2022-11-17T12:17:38.627Z,1456
2022-11-17T12:18:41.488Z,1460
2022-11-17T12:19:45.355Z,1556
2022-11-17T12:20:48.864Z,1568
2022-11-17T12:21:52.120Z,1468
2022-11-17T12:22:54.940Z,1440
2022-11-17T12:23:58.267Z,1476
2022-11-17T12:25:01.594Z,1396
2022-11-17T12:26:04.751Z,1480
2022-11-17T12:27:08.172Z,1472
2022-11-17T12:28:11.532Z,1480
2022-11-17T12:29:14.467Z,1456
2022-11-17T12:30:17.880Z,1412
2022-11-17T12:31:20.742Z,1368
2022-11-17T12:32:24.202Z,1340
2022-11-17T12:33:27.534Z,1352
2022-11-17T12:34:31.241Z,1388
2022-11-17T12:35:35.346Z,1452
2022-11-17T12:36:38.414Z,1532
2022-11-17T12:37:41.672Z,1700
2022-11-17T12:38:44.725Z,1760
2022-11-17T12:39:47.556Z,1832
2022-11-17T12:40:50.162Z,1976
2022-11-17T12:41:54.892Z,2288
2022-11-17T12:42:57.969Z,2028
2022-11-17T12:44:00.968Z,2240
2022-11-17T12:45:04.481Z,2116
2022-11-17T12:46:07.546Z,1852
2022-11-17T12:47:10.613Z,1820
2022-11-17T12:48:32.711Z,1668
2022-11-17T12:49:39.486Z,1620
2022-11-17T12:50:43.721Z,1472
2022-11-17T12:51:47.753Z,1476
2022-11-17T12:52:51.462Z,1416
2022-11-17T12:53:54.549Z,1324
2022-11-17T12:54:57.861Z,1276
2022-11-17T12:56:00.922Z,1332
2022-11-17T12:57:03.140Z,1268
2022-11-17T12:58:10.442Z,1212
2022-11-17T12:59:14.389Z,1136
2022-11-17T13:00:18.417Z,1060
2022-11-17T13:01:21.567Z,1032
2022-11-17T13:02:24.649Z,1032
2022-11-17T13:03:27.709Z,1080
2022-11-17T13:04:30.759Z,1024
2022-11-17T13:05:33.811Z,1064
2022-11-17T13:06:38.155Z,1028
2022-11-17T13:07:41.689Z,960
2022-11-17T13:08:44.077Z,952
2022-11-17T13:09:46.944Z,984
2022-11-17T13:10:49.716Z,968
2022-11-17T13:11:53.417Z,988
2022-11-17T13:12:56.347Z,1048
2022-11-17T13:13:59.761Z,1048
2022-11-17T13:15:03.340Z,1064
2022-11-17T13:16:06.636Z,996
2022-11-17T13:17:09.480Z,1024
2022-11-17T13:18:12.337Z,988
2022-11-17T13:19:15.393Z,972
2022-11-17T13:20:18.443Z,984
2022-11-17T13:21:21.445Z,988
2022-11-17T13:22:25.357Z,956
2022-11-17T13:23:28.160Z,904
2022-11-17T13:24:31.491Z,904
2022-11-17T13:25:33.994Z,844
2022-11-17T13:26:36.926Z,804
2022-11-17T13:27:39.573Z,796
2022-11-17T13:28:42.466Z,828
2022-11-17T13:29:45.448Z,764
2022-11-17T13:30:48.518Z,752
2022-11-17T13:31:51.926Z,720
2022-11-17T13:32:55.600Z,752
2022-11-17T13:33:58.466Z,764
2022-11-17T13:35:01.839Z,744
2022-11-17T13:36:04.410Z,788
2022-11-17T13:37:08.690Z,836
2022-11-17T13:38:12.902Z,868
2022-11-17T13:39:16.555Z,892
2022-11-17T13:40:29.855Z,992
2022-11-17T13:41:32.439Z,1012
2022-11-17T13:42:34.967Z,1080
2022-11-17T13:43:38.397Z,1072
2022-11-17T13:44:41.841Z,1132
2022-11-17T13:45:44.685Z,1120
2022-11-17T13:46:47.836Z,1108
2022-11-17T13:47:50.541Z,1132
2022-11-17T13:48:53.898Z,1144
2022-11-17T13:49:56.959Z,1132
2022-11-17T13:50:59.764Z,1180
2022-11-17T13:52:02.545Z,1252
2022-11-17T13:53:06.512Z,1228
2022-11-17T13:54:11.032Z,1248
2022-11-17T13:55:17.376Z,1232
2022-11-17T13:56:20.409Z,1276
2022-11-17T13:57:22.921Z,1248
2022-11-17T13:58:27.034Z,1232
2022-11-17T13:59:30.384Z,1240
2022-11-17T14:00:33.639Z,1252
2022-11-17T14:01:36.441Z,1312
2022-11-17T14:02:39.351Z,1272
2022-11-17T14:03:43.061Z,1208
2022-11-17T14:04:46.178Z,1252
2022-11-17T14:05:49.507Z,1180
2022-11-17T14:06:52.310Z,1088
2022-11-17T14:07:56.447Z,1076
2022-11-17T14:08:59.642Z,1028
2022-11-17T14:10:05.002Z,996
2022-11-17T14:11:15.995Z,952
2022-11-17T14:12:18.814Z,996
2022-11-17T14:13:21.572Z,976
2022-11-17T14:14:24.087Z,972
2022-11-17T14:15:26.783Z,920
2022-11-17T14:16:29.620Z,932
2022-11-17T14:17:33.437Z,868
2022-11-17T14:18:36.216Z,956
2022-11-17T14:19:39.379Z,1036
2022-11-17T14:20:42.243Z,944
2022-11-17T14:21:45.674Z,876
2022-11-17T14:22:48.191Z,868
2022-11-17T14:23:51.525Z,816
2022-11-17T14:24:55.207Z,808
2022-11-17T14:25:58.791Z,796
2022-11-17T14:27:02.142Z,764
2022-11-17T14:28:04.925Z,712
2022-11-17T14:29:07.623Z,688
2022-11-17T14:30:09.843Z,696
2022-11-17T14:31:12.725Z,620
2022-11-17T14:32:16.240Z,620
2022-11-17T14:33:19.673Z,608
2022-11-17T14:34:22.158Z,576
2022-11-17T14:35:25.952Z,512
2022-11-17T14:36:28.932Z,516
2022-11-17T14:37:32.287Z,504
2022-11-17T14:38:35.345Z,456
2022-11-17T14:39:38.779Z,436
2022-11-17T14:40:41.839Z,420
2022-11-17T14:41:46.124Z,448
2022-11-17T14:42:49.694Z,420
2022-11-17T14:43:52.945Z,400
2022-11-17T14:44:56.300Z,400
2022-11-17T14:45:59.283Z,376
2022-11-17T14:47:02.484Z,356
2022-11-17T14:48:05.456Z,356